Date,TemperatureHighF,TemperatureAvgF,TemperatureLowF,DewpointHighF,DewpointAvgF,DewpointLowF,HumidityHigh,HumidityAvg,HumidityLow,PressureMaxIn,PressureMinIn,WindSpeedMaxMPH,WindSpeedAvgMPH,GustSpeedMaxMPH,PrecipitationSumIn
2013-7-1,97,80,68,63,57,54,51,48,45,29.78,29.68,6,0,9,0.00
2013-7-2,89,77,68,62,56,53,51,48,44,29.88,29.77,7,0,9,0.00
2013-7-3,90,75,66,61,56,53,53,49,46,29.84,29.71,5,0,10,0.00
2013-7-4,89,74,64,59,56,53,52,49,46,29.75,29.64,8,0,9,0.00
2013-7-5,85,72,63,60,57,52,54,52,47,29.77,29.67,7,0,9,0.00
2013-7-6,86,71,64,62,59,57,54,53,52,29.76,29.65,5,0,10,0.00
2013-7-7,86,73,64,60,59,54,53,51,46,29.78,29.67,7,0,10,0.00
2013-7-8,96,77,62,63,57,53,53,50,46,29.83,29.74,10,0,10,0.00
2013-7-9,92,79,66,63,57,53,52,48,45,29.88,29.79,6,0,9,0.00
2013-7-10,82,74,68,60,56,53,52,49,45,29.89,29.81,10,0,10,0.00
2013-7-11,77,72,68,62,57,54,58,52,47,29.90,29.81,4,0,5,0.01
2013-7-12,87,74,65,62,59,54,55,53,49,29.87,29.75,6,0,9,0.00
2013-7-13,88,73,62,63,59,55,53,51,49,29.88,29.75,7,0,8,0.00
2013-7-14,89,74,62,63,60,56,53,51,46,29.86,29.72,7,0,9,0.00
2013-7-15,88,75,63,59,56,53,51,48,44,29.79,29.69,6,0,7,0.00
2013-7-16,89,73,57,59,54,51,51,47,44,29.92,29.78,10,0,10,0.00
2013-7-17,90,75,58,59,54,50,50,46,43,29.96,29.86,6,0,6,0.00
2013-7-18,87,73,59,60,54,50,53,47,43,29.91,29.75,6,0,9,0.00
2013-7-19,87,72,61,60,56,52,54,49,45,29.83,29.73,7,0,7,0.00
2013-7-20,84,70,63,60,57,55,55,50,48,29.81,29.69,7,0,9,0.00
2013-7-21,76,70,66,59,56,53,53,51,46,29.86,29.73,6,0,7,0.00
2013-7-22,86,75,66,63,58,54,55,52,47,29.91,29.83,9,0,11,0.00
2013-7-23,85,74,65,61,57,53,54,51,47,29.95,29.84,5,0,9,0.00